Time;durP1;ratioP1;P1;durP2;ratioP2;P2;SDS_P1;SDS_P2;PMS_P1;PMS_P2;Temp;Humidity;BMP_temperature;BMP_pressure;BME280_temperature;BME280_humidity;BME280_pressure;Samples;Min_cycle;Max_cycle;Signal;HPM_P1;HPM_P2
2023/09/26 00:00:31;;;;;;;6.87;3.10;;;;;;;16.18;81.08;101368.81;4186816;28;20233;-63
2023/09/26 00:02:56;;;;;;;6.57;3.00;;;;;;;16.10;81.11;101364.19;4189493;28;20254;-65
2023/09/26 00:05:23;;;;;;;11.13;3.40;;;;;;;16.09;81.06;101367.91;4177253;28;20862;-67
2023/09/26 00:07:51;;;;;;;8.50;3.47;;;;;;;16.01;81.35;101362.41;4184550;28;20373;-67
2023/09/26 00:10:19;;;;;;;8.87;3.27;;;;;;;15.99;81.57;101365.31;4184837;28;20236;-65
2023/09/26 00:12:47;;;;;;;7.67;3.47;;;;;;;15.96;81.42;101362.88;4201879;28;20229;-64
2023/09/26 00:15:14;;;;;;;5.47;3.20;;;;;;;16.00;81.62;101364.28;4181196;28;20424;-66
2023/09/26 00:17:41;;;;;;;5.93;2.93;;;;;;;15.94;81.68;101362.19;4187054;28;22102;-63
2023/09/26 00:20:15;;;;;;;6.93;3.50;;;;;;;15.90;81.99;101363.53;4198165;28;20234;-65
2023/09/26 00:22:42;;;;;;;6.03;3.27;;;;;;;15.87;81.99;101363.84;4170201;28;20245;-67
2023/09/26 00:25:10;;;;;;;9.53;3.93;;;;;;;15.88;82.19;101367.44;4187811;28;20233;-64
2023/09/26 00:27:37;;;;;;;7.07;3.63;;;;;;;15.83;82.30;101357.00;4180110;28;20244;-66
2023/09/26 00:30:04;;;;;;;8.90;3.40;;;;;;;15.83;82.44;101363.28;4181349;28;23079;-66
2023/09/26 00:32:32;;;;;;;5.77;3.10;;;;;;;15.87;82.29;101361.09;4182156;28;25052;-66
2023/09/26 00:34:58;;;;;;;8.23;3.30;;;;;;;15.86;82.05;101362.16;4184951;28;20242;-65
2023/09/26 00:37:25;;;;;;;8.50;3.43;;;;;;;15.81;82.56;101364.44;4189202;28;20238;-64
2023/09/26 00:39:53;;;;;;;5.07;3.13;;;;;;;15.77;82.88;101363.91;4193164;28;20234;-65
2023/09/26 00:42:20;;;;;;;11.90;3.30;;;;;;;15.72;83.17;101357.19;4182451;28;20302;-69
2023/09/26 00:44:47;;;;;;;5.30;3.20;;;;;;;15.75;82.97;101356.91;4198294;28;23561;-64
2023/09/26 00:47:15;;;;;;;5.60;3.13;;;;;;;15.71;83.27;101360.97;4202695;28;20247;-64
2023/09/26 00:49:42;;;;;;;15.67;3.60;;;;;;;15.69;83.46;101366.56;4202425;28;20235;-64
2023/09/26 00:52:09;;;;;;;5.40;3.10;;;;;;;15.72;83.23;101354.47;4204698;28;21002;-67
2023/09/26 00:54:37;;;;;;;6.83;3.33;;;;;;;15.76;83.06;101348.53;4205936;28;20248;-65
2023/09/26 00:57:04;;;;;;;7.17;3.30;;;;;;;15.75;82.94;101355.00;4201939;28;20231;-64
2023/09/26 00:59:32;;;;;;;10.20;3.70;;;;;;;15.76;82.82;101350.44;4212149;28;21983;-68
2023/09/26 01:01:59;;;;;;;5.53;3.40;;;;;;;15.56;83.90;101350.59;4199949;28;20230;-65
2023/09/26 01:04:25;;;;;;;8.50;3.37;;;;;;;15.42;84.83;101348.44;4204104;28;20271;-63
2023/09/26 01:06:52;;;;;;;7.03;3.30;;;;;;;15.43;84.55;101347.41;4209510;28;26283;-65
2023/09/26 01:09:19;;;;;;;5.13;3.13;;;;;;;15.46;84.69;101344.38;4214898;28;20390;-68
2023/09/26 01:11:45;;;;;;;6.50;3.20;;;;;;;15.51;84.35;101345.63;4200568;28;20690;-66
2023/09/26 01:14:12;;;;;;;4.70;3.10;;;;;;;15.53;84.33;101345.47;4199374;28;20312;-65
2023/09/26 01:16:38;;;;;;;5.17;3.17;;;;;;;15.45;84.51;101343.50;4208512;28;22186;-66
2023/09/26 01:19:05;;;;;;;4.77;3.00;;;;;;;15.50;nan;101349.38;4198881;28;20304;-64
2023/09/26 01:21:32;;;;;;;8.83;3.40;;;;;;;15.42;84.54;101348.44;4186725;28;20340;-67
2023/09/26 01:23:59;;;;;;;6.67;3.30;;;;;;;15.34;85.04;101354.69;4204795;28;20228;-65
2023/09/26 01:26:34;;;;;;;9.83;3.53;;;;;;;15.35;85.19;101356.41;4206582;28;20935;-68
2023/09/26 01:29:00;;;;;;;7.40;3.57;;;;;;;15.30;85.47;101350.53;4210411;28;20339;-67
2023/09/26 01:31:27;;;;;;;8.70;3.30;;;;;;;15.28;85.36;101341.66;4198683;28;20283;-62
2023/09/26 01:33:54;;;;;;;6.60;3.67;;;;;;;15.15;86.26;101334.72;4206628;28;20940;-67
2023/09/26 01:36:22;;;;;;;6.33;3.40;;;;;;;15.08;86.32;101330.06;4203389;28;20244;-64
2023/09/26 01:38:48;;;;;;;7.83;3.73;;;;;;;15.10;86.76;101350.69;4209806;28;20611;-66
2023/09/26 01:41:15;;;;;;;6.20;3.23;;;;;;;15.21;86.14;101342.31;4211700;28;20235;-64
2023/09/26 01:43:41;;;;;;;5.07;3.57;;;;;;;15.17;86.13;101340.88;4204642;28;22077;-66
2023/09/26 01:46:09;;;;;;;7.10;3.20;;;;;;;15.10;86.74;101347.97;4198949;28;20234;-64
2023/09/26 01:48:36;;;;;;;7.70;3.30;;;;;;;15.10;86.85;101341.66;4205161;28;20244;-66
2023/09/26 01:51:05;;;;;;;8.60;3.80;;;;;;;15.00;87.26;101339.88;4194963;28;23355;-65
2023/09/26 01:53:31;;;;;;;7.40;3.70;;;;;;;14.98;87.42;101338.31;4189616;28;20232;-69
2023/09/26 01:55:59;;;;;;;6.33;3.87;;;;;;;14.91;87.99;101343.50;4194808;28;22002;-63
2023/09/26 01:58:26;;;;;;;7.03;3.50;;;;;;;14.85;88.37;101346.84;4201412;28;20259;-66
2023/09/26 02:00:52;;;;;;;6.53;3.73;;;;;;;14.81;88.58;101340.84;4201137;28;20318;-64
2023/09/26 02:03:22;;;;;;;10.63;3.90;;;;;;;14.83;88.47;101346.13;4220365;28;20230;-64
2023/09/26 02:05:51;;;;;;;9.13;3.63;;;;;;;14.92;88.14;101344.38;4202797;28;22398;-63
2023/09/26 02:08:18;;;;;;;6.23;3.47;;;;;;;14.93;87.89;101343.34;4212744;28;25631;-64
2023/09/26 02:10:44;;;;;;;8.73;4.13;;;;;;;14.80;88.64;101339.13;4199362;28;20311;-65
2023/09/26 02:13:11;;;;;;;6.27;3.60;;;;;;;14.78;88.83;101341.16;4209596;28;21710;-65
2023/09/26 02:15:38;;;;;;;6.37;3.80;;;;;;;14.79;89.01;101336.56;4208421;28;20518;-65
2023/09/26 02:18:05;;;;;;;9.97;4.00;;;;;;;14.83;88.80;101333.38;4204469;28;20454;-68
2023/09/26 02:20:32;;;;;;;7.53;3.60;;;;;;;14.82;88.71;101338.97;4210125;28;20396;-64
2023/09/26 02:22:59;;;;;;;5.83;3.73;;;;;;;14.87;88.50;101333.94;4210536;28;20374;-66
2023/09/26 02:25:27;;;;;;;6.70;4.13;;;;;;;14.81;88.68;101345.44;4200166;28;20230;-64
2023/09/26 02:27:54;;;;;;;7.43;3.57;;;;;;;14.83;88.59;101336.13;4216480;28;21350;-65
2023/09/26 02:30:24;;;;;;;5.90;3.33;;;;;;;14.82;88.44;101344.41;4204122;28;20249;-63
2023/09/26 02:32:50;;;;;;;8.30;4.40;;;;;;;14.69;89.03;101347.53;4198490;28;20236;-64
2023/09/26 02:35:20;;;;;;;7.30;4.10;;;;;;;14.70;89.08;101343.78;4199876;28;20250;-63
2023/09/26 02:37:47;;;;;;;9.20;3.77;;;;;;;14.68;89.43;101337.63;4196900;28;20237;-63
2023/09/26 02:40:14;;;;;;;7.43;4.40;;;;;;;14.69;89.29;101342.09;4202989;28;20225;-64
2023/09/26 02:42:43;;;;;;;7.40;3.90;;;;;;;14.63;89.80;101339.91;4194260;28;20252;-65
2023/09/26 02:45:14;;;;;;;8.53;3.83;;;;;;;14.63;90.05;101342.63;4202924;28;21458;-66
2023/09/26 02:47:42;;;;;;;7.50;4.23;;;;;;;14.56;90.29;101342.41;4203070;28;20230;-66
2023/09/26 02:50:09;;;;;;;6.20;3.80;;;;;;;14.62;90.29;101340.91;4205071;28;21570;-65
2023/09/26 02:52:37;;;;;;;6.83;4.27;;;;;;;14.61;90.29;101339.22;4217131;28;20593;-67
2023/09/26 02:55:04;;;;;;;7.17;3.90;;;;;;;14.60;90.55;101343.81;4208604;28;20237;-64
2023/09/26 02:57:33;;;;;;;8.17;3.83;;;;;;;14.64;90.25;101342.50;4217981;28;20237;-63
2023/09/26 03:00:00;;;;;;;11.73;4.00;;;;;;;14.67;90.05;101344.94;4211749;28;20235;-64
2023/09/26 03:02:27;;;;;;;12.27;4.07;;;;;;;14.70;89.86;101349.22;4230328;28;20231;-64
2023/09/26 03:04:56;;;;;;;10.87;4.03;;;;;;;14.76;89.69;101342.31;4204231;28;22297;-65
2023/09/26 03:07:23;;;;;;;11.20;4.27;;;;;;;14.73;89.79;101340.75;4225139;28;20657;-64
2023/09/26 03:09:49;;;;;;;6.83;3.57;;;;;;;14.73;89.84;101338.03;4202633;28;20362;-65
2023/09/26 03:12:16;;;;;;;7.50;3.93;;;;;;;14.70;89.74;101328.28;4202999;28;20238;-64
2023/09/26 03:14:42;;;;;;;8.87;4.27;;;;;;;14.69;89.67;101315.69;4206325;28;22739;-65
2023/09/26 03:17:10;;;;;;;11.77;4.00;;;;;;;14.68;89.78;101316.69;4205806;28;20232;-64
2023/09/26 03:19:37;;;;;;;7.63;4.67;;;;;;;14.64;90.08;101312.53;4207760;28;20249;-66
2023/09/26 03:22:03;;;;;;;10.17;4.23;;;;;;;14.65;90.33;101325.13;4208252;28;20236;-67
2023/09/26 03:24:30;;;;;;;6.97;3.93;;;;;;;14.66;90.23;101321.41;4205346;28;20242;-66
2023/09/26 03:26:56;;;;;;;8.87;4.30;;;;;;;14.68;90.04;101313.97;4203352;28;20228;-66
2023/09/26 03:29:23;;;;;;;6.77;4.07;;;;;;;14.67;90.20;101314.13;4205156;28;22912;-64
2023/09/26 03:31:50;;;;;;;11.47;4.57;;;;;;;14.67;89.98;101320.41;4204416;28;21076;-64
2023/09/26 03:34:16;;;;;;;11.73;4.27;;;;;;;14.72;89.99;101317.22;4204548;28;20309;-64
2023/09/26 03:36:44;;;;;;;8.93;4.00;;;;;;;14.72;89.91;101322.69;4206071;28;20255;-65
2023/09/26 03:39:10;;;;;;;13.03;4.37;;;;;;;14.72;89.94;101326.28;4203133;28;21445;-67
2023/09/26 03:41:37;;;;;;;6.57;4.43;;;;;;;14.73;90.00;101317.06;4208784;28;20698;-66
2023/09/26 03:44:04;;;;;;;11.17;4.50;;;;;;;14.70;90.04;101311.94;4213342;28;22354;-66
2023/09/26 03:46:32;;;;;;;9.37;3.87;;;;;;;14.66;89.88;101307.78;4206543;28;24056;-65
2023/09/26 03:48:59;;;;;;;8.57;3.83;;;;;;;14.66;90.13;101315.13;4205161;28;20346;-65
2023/09/26 03:51:25;;;;;;;8.87;4.20;;;;;;;14.64;90.33;101303.47;4207484;28;20243;-64
2023/09/26 03:53:52;;;;;;;11.70;4.63;;;;;;;14.58;90.52;101313.13;4207986;28;23643;-65
2023/09/26 03:56:19;;;;;;;8.73;4.33;;;;;;;14.54;90.94;101304.38;4202295;28;21248;-65
2023/09/26 03:58:45;;;;;;;7.33;4.40;;;;;;;14.51;90.89;101302.00;4207493;28;20234;-65
2023/09/26 04:01:16;;;;;;;10.97;4.53;;;;;;;14.53;90.80;101302.69;4205127;28;20306;-66
2023/09/26 04:03:52;;;;;;;13.20;4.30;;;;;;;14.56;90.71;101306.97;4208928;28;20251;-67
2023/09/26 04:06:19;;;;;;;8.30;3.73;;;;;;;14.49;91.06;101301.28;4206411;28;20232;-66
2023/09/26 04:08:46;;;;;;;11.97;4.63;;;;;;;14.49;91.35;101303.16;4221354;28;20945;-64
2023/09/26 04:11:14;;;;;;;8.40;4.13;;;;;;;14.48;91.28;101309.59;4207004;28;25397;-67
2023/09/26 04:13:41;;;;;;;10.00;4.57;;;;;;;14.43;91.49;101304.59;4209750;28;21027;-66
2023/09/26 04:16:09;;;;;;;10.33;5.60;;;;;;;14.40;91.76;101305.78;4204106;28;20553;-66
2023/09/26 04:18:37;;;;;;;9.70;5.10;;;;;;;14.40;91.78;101302.16;4200383;28;20304;-66
2023/09/26 04:21:06;;;;;;;10.97;4.97;;;;;;;14.38;91.79;101294.16;4187521;28;20564;-66
2023/09/26 04:23:38;;;;;;;13.03;5.00;;;;;;;14.41;91.50;101296.59;4213817;28;21489;-66
2023/09/26 04:26:15;;;;;;;8.50;4.73;;;;;;;14.37;91.80;101297.03;4193721;28;20499;-66
2023/09/26 04:28:43;;;;;;;8.73;5.20;;;;;;;14.33;92.04;101291.03;4203834;28;20232;-65
2023/09/26 04:31:17;;;;;;;12.43;5.23;;;;;;;14.30;92.14;101294.06;4216459;28;20240;-65
2023/09/26 04:33:47;;;;;;;11.27;4.83;;;;;;;14.31;92.12;101293.06;4206209;28;20347;-65
2023/09/26 04:36:13;;;;;;;10.83;4.70;;;;;;;14.29;92.28;101295.06;4200758;28;20303;-64
2023/09/26 04:38:40;;;;;;;17.53;5.57;;;;;;;14.37;92.05;101297.03;4208590;28;20320;-65
2023/09/26 04:41:07;;;;;;;11.67;5.20;;;;;;;14.32;92.15;101297.50;4204710;28;25578;-65
2023/09/26 04:43:34;;;;;;;13.63;4.90;;;;;;;14.35;92.16;101299.91;4208249;28;21689;-66
2023/09/26 04:46:01;;;;;;;11.27;4.80;;;;;;;14.38;92.14;101299.59;4209860;28;23491;-65
2023/09/26 04:48:29;;;;;;;11.37;5.03;;;;;;;14.39;92.02;101305.91;4217069;28;20439;-68
2023/09/26 04:50:56;;;;;;;12.30;6.27;;;;;;;14.44;92.27;101306.31;4219402;28;20237;-66
2023/09/26 04:53:22;;;;;;;9.20;5.07;;;;;;;14.48;92.19;101301.44;4208449;28;20232;-67
2023/09/26 04:55:49;;;;;;;12.53;5.60;;;;;;;14.56;91.82;101305.09;4197210;28;20232;-66
2023/09/26 04:58:16;;;;;;;12.33;5.60;;;;;;;14.61;91.93;101306.53;4199421;28;22058;-64
2023/09/26 05:00:43;;;;;;;9.77;5.60;;;;;;;14.64;91.66;101311.66;4202550;28;23668;-68
2023/09/26 05:03:10;;;;;;;11.57;5.60;;;;;;;14.66;91.44;101313.25;4195519;28;20498;-63
2023/09/26 05:05:37;;;;;;;9.23;4.77;;;;;;;14.72;91.05;101306.34;4203601;28;20320;-66
2023/09/26 05:08:04;;;;;;;9.47;5.70;;;;;;;14.72;91.41;101315.38;4220084;28;20231;-64
2023/09/26 05:10:31;;;;;;;10.70;5.47;;;;;;;14.78;90.95;101307.59;4207583;28;20241;-65
2023/09/26 05:12:58;;;;;;;12.60;5.40;;;;;;;14.82;90.94;101306.25;4200480;28;20244;-65
2023/09/26 05:15:27;;;;;;;12.43;5.53;;;;;;;14.87;91.08;101309.41;4205976;28;20643;-65
2023/09/26 05:17:54;;;;;;;15.10;5.37;;;;;;;14.97;90.09;101312.06;4210280;28;20243;-66
2023/09/26 05:20:23;;;;;;;12.23;6.27;;;;;;;15.05;90.27;101310.25;4212669;28;20237;-65
2023/09/26 05:22:50;;;;;;;11.87;5.40;;;;;;;15.01;90.36;101310.72;4236483;28;20384;-65
2023/09/26 05:25:17;;;;;;;10.97;6.10;;;;;;;14.97;90.43;101304.72;4212105;28;20604;-64
2023/09/26 05:27:44;;;;;;;11.50;5.77;;;;;;;15.02;90.17;101304.25;4213676;28;22063;-65
2023/09/26 05:30:13;;;;;;;15.10;5.63;;;;;;;14.99;90.54;101299.13;4225617;28;20936;-67
2023/09/26 05:32:41;;;;;;;9.60;5.47;;;;;;;15.02;90.76;101305.13;4231076;28;20249;-64
2023/09/26 05:35:09;;;;;;;12.70;5.70;;;;;;;15.06;90.54;101300.22;4210766;28;20235;-68
2023/09/26 05:37:37;;;;;;;10.93;5.43;;;;;;;15.05;90.50;101299.34;4233653;28;20247;-65
2023/09/26 05:40:09;;;;;;;14.70;5.93;;;;;;;15.09;90.28;101294.44;4218834;28;21737;-68
2023/09/26 05:42:37;;;;;;;14.73;6.33;;;;;;;15.12;90.60;101296.00;4211197;28;20475;-67
2023/09/26 05:45:06;;;;;;;12.63;5.67;;;;;;;15.13;90.40;101304.03;4210045;28;20344;-67
2023/09/26 05:47:33;;;;;;;17.23;6.03;;;;;;;15.16;90.31;101302.88;4216695;28;21642;-68
2023/09/26 05:50:00;;;;;;;10.80;5.67;;;;;;;15.16;90.34;101306.44;4222745;28;20342;-67
2023/09/26 05:52:27;;;;;;;12.20;6.17;;;;;;;15.20;90.14;101306.97;4208206;28;20228;-72
2023/09/26 05:54:55;;;;;;;15.43;6.33;;;;;;;15.23;90.32;101306.69;4218999;28;20256;-72
2023/09/26 05:57:22;;;;;;;15.63;6.27;;;;;;;15.31;90.21;101305.88;4211679;28;20309;-70
2023/09/26 05:59:48;;;;;;;16.27;6.17;;;;;;;15.35;89.86;101296.38;4215220;28;20236;-69
2023/09/26 06:02:16;;;;;;;13.97;6.70;;;;;;;15.40;89.81;101304.09;4205830;28;20232;-70
2023/09/26 06:04:44;;;;;;;20.67;6.33;;;;;;;15.49;89.54;101304.00;4211436;28;20245;-69
2023/09/26 06:07:12;;;;;;;23.50;6.63;;;;;;;15.52;89.18;101305.53;4204542;28;25722;-68
2023/09/26 06:09:38;;;;;;;19.67;6.97;;;;;;;15.51;89.62;101312.00;4221275;28;20292;-69
2023/09/26 06:12:18;;;;;;;22.37;6.83;;;;;;;15.50;89.68;101302.13;4207467;28;20244;-71
2023/09/26 06:14:46;;;;;;;15.87;6.80;;;;;;;15.56;89.59;101308.81;4213586;28;20288;-72
2023/09/26 06:17:13;;;;;;;13.83;6.77;;;;;;;15.54;89.78;101303.53;4221079;28;21181;-70
2023/09/26 06:19:45;;;;;;;22.50;6.83;;;;;;;15.58;89.68;101304.91;4225277;28;20644;-69
2023/09/26 06:22:11;;;;;;;15.63;6.60;;;;;;;15.64;89.40;101308.88;4227891;28;20254;-70
2023/09/26 06:24:38;;;;;;;14.50;7.67;;;;;;;15.67;90.14;101306.69;4210265;28;20280;-69
2023/09/26 06:27:05;;;;;;;15.70;6.77;;;;;;;15.75;89.68;101305.88;4219796;28;20443;-69
2023/09/26 06:29:32;;;;;;;18.60;6.53;;;;;;;15.89;88.66;101307.19;4205601;28;20229;-70
2023/09/26 06:31:58;;;;;;;15.00;7.27;;;;;;;15.94;88.51;101307.56;4199704;28;20237;-71
2023/09/26 06:34:31;;;;;;;18.33;7.23;;;;;;;15.98;88.28;101316.28;4214022;28;20456;-69
2023/09/26 06:36:58;;;;;;;17.30;7.50;;;;;;;16.10;88.12;101315.00;4224422;28;20235;-71
2023/09/26 06:39:25;;;;;;;15.47;7.90;;;;;;;16.16;87.51;101316.25;4218274;28;20677;-71
2023/09/26 06:41:51;;;;;;;15.97;7.97;;;;;;;16.13;87.98;101320.13;4224122;28;20242;-70
2023/09/26 06:44:18;;;;;;;20.47;7.83;;;;;;;16.14;88.04;101318.28;4214374;28;20239;-71
2023/09/26 06:46:45;;;;;;;18.27;7.97;;;;;;;16.23;88.01;101321.91;4208084;28;20401;-69
2023/09/26 06:49:12;;;;;;;19.30;8.10;;;;;;;16.25;88.45;101317.13;4225195;28;20514;-70
2023/09/26 06:51:38;;;;;;;15.30;7.67;;;;;;;16.35;87.63;101322.47;4223307;28;20242;-69
2023/09/26 06:54:05;;;;;;;20.43;8.17;;;;;;;16.48;86.98;101329.19;4219826;28;20561;-70
2023/09/26 06:56:32;;;;;;;16.50;7.40;;;;;;;16.45;87.21;101321.31;4262926;28;20256;-70
2023/09/26 06:58:59;;;;;;;22.80;8.70;;;;;;;16.37;87.65;101312.25;4218590;28;23793;-70
2023/09/26 07:01:25;;;;;;;22.27;9.20;;;;;;;16.32;88.04;101313.56;4201185;28;21151;-69
2023/09/26 07:03:52;;;;;;;20.13;8.70;;;;;;;16.31;88.50;101319.22;4211702;28;20291;-67
2023/09/26 07:06:19;;;;;;;23.83;8.87;;;;;;;16.31;88.47;101314.59;4222642;28;26422;-69
2023/09/26 07:08:46;;;;;;;21.83;9.70;;;;;;;16.41;88.12;101325.41;4224668;28;20232;-67
2023/09/26 07:11:13;;;;;;;27.70;8.97;;;;;;;16.44;88.16;101316.03;4203938;28;20243;-70
2023/09/26 07:13:40;;;;;;;23.03;9.27;;;;;;;16.47;88.17;101321.13;4213328;28;20236;-70
2023/09/26 07:16:09;;;;;;;16.10;9.23;;;;;;;16.63;87.87;101323.09;4212263;28;20903;-71
2023/09/26 07:18:37;;;;;;;26.80;9.13;;;;;;;16.83;86.80;101328.28;4224682;28;20343;-72
2023/09/26 07:21:07;;;;;;;22.77;10.00;;;;;;;16.80;86.96;101319.38;4251503;28;20309;-72
2023/09/26 07:23:35;;;;;;;26.80;10.67;;;;;;;16.89;86.63;101327.59;4192285;28;21187;-72
2023/09/26 07:26:12;;;;;;;21.67;9.00;;;;;;;17.04;86.54;101327.84;4202799;28;20267;-73
2023/09/26 07:28:45;;;;;;;27.33;10.27;;;;;;;17.18;84.94;101331.81;4199204;28;21660;-71
2023/09/26 07:31:13;;;;;;;22.13;9.63;;;;;;;17.20;85.01;101327.88;4191713;28;20232;-74
2023/09/26 07:33:41;;;;;;;27.00;10.87;;;;;;;17.19;84.99;101326.16;4199884;28;21542;-71
2023/09/26 07:36:09;;;;;;;26.73;10.10;;;;;;;17.04;85.74;101328.69;4206547;28;20295;-70
2023/09/26 07:38:36;;;;;;;22.30;10.00;;;;;;;16.99;86.09;101327.50;4215735;28;20234;-70
2023/09/26 07:41:03;;;;;;;23.63;10.23;;;;;;;16.78;87.59;101326.03;4214246;28;21317;-70
2023/09/26 07:43:32;;;;;;;28.83;11.20;;;;;;;16.56;88.88;101324.78;4210117;28;20395;-69
2023/09/26 07:46:06;;;;;;;19.70;10.53;;;;;;;16.70;88.74;101324.16;4204911;28;20735;-71
2023/09/26 07:48:35;;;;;;;26.20;10.73;;;;;;;16.81;88.32;101322.97;4267752;28;20342;-72
2023/09/26 07:51:03;;;;;;;23.97;11.30;;;;;;;16.88;88.29;101334.13;4322579;28;20258;-70
2023/09/26 07:53:31;;;;;;;23.67;11.07;;;;;;;16.95;88.21;101333.31;4311371;28;21524;-71
2023/09/26 07:55:59;;;;;;;23.90;11.47;;;;;;;17.04;87.54;101325.94;4325753;28;20243;-72
2023/09/26 07:58:28;;;;;;;23.40;10.57;;;;;;;17.12;86.66;101322.41;4317987;28;20242;-70
2023/09/26 08:00:58;;;;;;;19.77;10.37;;;;;;;17.14;87.38;101331.28;4303763;28;20229;-69
2023/09/26 08:03:26;;;;;;;27.10;11.07;;;;;;;17.21;86.52;101328.72;4329147;28;20239;-71
2023/09/26 08:06:06;;;;;;;32.90;11.00;;;;;;;17.22;87.22;101333.16;4338642;28;21195;-70
2023/09/26 08:08:34;;;;;;;24.30;10.57;;;;;;;17.49;86.31;101329.25;4322730;28;23581;-72
2023/09/26 08:11:11;;;;;;;23.07;10.10;;;;;;;17.75;84.41;101330.94;4300503;28;22080;-72
2023/09/26 08:13:39;;;;;;;29.47;11.40;;;;;;;17.82;83.97;101323.75;4199907;28;21120;-71
2023/09/26 08:16:07;;;;;;;22.47;10.73;;;;;;;17.86;84.50;101330.59;4195644;28;20232;-70
2023/09/26 08:18:34;;;;;;;23.43;11.43;;;;;;;17.99;84.12;101327.34;4210697;28;20280;-72
2023/09/26 08:21:01;;;;;;;25.53;11.33;;;;;;;18.08;83.47;101328.19;4208449;28;21193;-72
2023/09/26 08:23:29;;;;;;;30.27;11.97;;;;;;;18.20;82.66;101331.41;4204110;28;20626;-72
2023/09/26 08:25:57;;;;;;;29.20;12.67;;;;;;;18.29;82.26;101334.97;4196791;28;21427;-70
2023/09/26 08:28:25;;;;;;;21.50;11.37;;;;;;;18.45;81.17;101321.19;4332530;28;20302;-70
2023/09/26 08:30:56;;;;;;;20.87;11.20;;;;;;;18.55;80.80;101322.88;4307511;28;20299;-70
2023/09/26 08:33:26;;;;;;;27.23;12.00;;;;;;;18.58;81.04;101320.63;4297571;28;21828;-71
2023/09/26 08:35:55;;;;;;;26.60;11.83;;;;;;;18.59;81.42;101314.13;4281335;28;21605;-68
2023/09/26 08:38:22;;;;;;;19.93;11.10;;;;;;;18.77;80.03;101313.00;4302768;28;20820;-72
2023/09/26 08:40:53;;;;;;;33.33;12.23;;;;;;;18.80;79.02;101321.72;4320234;28;20838;-73
2023/09/26 08:43:24;;;;;;;27.13;11.00;;;;;;;18.86;79.64;101311.91;4325453;28;20240;-71
2023/09/26 08:45:53;;;;;;;27.00;11.73;;;;;;;18.81;79.66;101308.84;4286863;28;20347;-69
2023/09/26 08:48:21;;;;;;;24.20;11.77;;;;;;;18.77;80.21;101315.75;4278463;28;20308;-68
2023/09/26 08:50:50;;;;;;;28.57;11.47;;;;;;;18.82;80.07;101313.31;4207851;28;21493;-67
2023/09/26 08:53:16;;;;;;;26.30;12.50;;;;;;;18.60;80.23;101304.00;4210301;28;20228;-70
2023/09/26 08:55:45;;;;;;;25.40;11.80;;;;;;;18.54;80.92;101305.59;4214455;28;20241;-70
2023/09/26 08:58:15;;;;;;;24.10;12.70;;;;;;;18.45;81.46;101304.75;4203276;28;20236;-70
2023/09/26 09:00:43;;;;;;;20.97;11.73;;;;;;;18.54;80.89;101297.34;4204378;28;20234;-72
2023/09/26 09:03:10;;;;;;;25.67;13.83;;;;;;;18.52;81.03;101297.50;4220712;28;20225;-72
2023/09/26 09:05:40;;;;;;;28.90;13.83;;;;;;;18.26;82.57;101302.44;4242874;28;21341;-73
2023/09/26 09:08:15;;;;;;;27.87;14.27;;;;;;;18.59;81.49;101300.41;4305004;28;20925;-69
2023/09/26 09:10:55;;;;;;;26.77;14.30;;;;;;;18.76;80.38;101298.41;4306209;28;20236;-72
2023/09/26 09:13:33;;;;;;;32.13;14.73;;;;;;;18.78;80.43;101301.84;4316047;28;20300;-73
2023/09/26 09:16:14;;;;;;;22.57;14.10;;;;;;;18.96;79.15;101300.72;4225683;28;20232;-73
2023/09/26 09:18:44;;;;;;;24.90;13.27;;;;;;;18.58;80.39;101297.84;4201501;28;20318;-69
2023/09/26 09:21:27;;;;;;;27.23;13.50;;;;;;;18.85;79.65;101304.69;4211576;28;20237;-69
2023/09/26 09:24:02;;;;;;;26.47;12.97;;;;;;;18.67;80.04;101303.13;4204782;28;20240;-70
2023/09/26 09:26:31;;;;;;;29.13;13.73;;;;;;;18.63;80.10;101300.91;4202297;28;20275;-71
2023/09/26 09:29:19;;;;;;;27.00;14.57;;;;;;;18.41;80.93;101295.19;4226291;28;20287;-69
2023/09/26 09:31:47;;;;;;;30.90;13.77;;;;;;;18.62;80.80;101296.44;4211009;28;20236;-71
2023/09/26 09:34:19;;;;;;;27.80;13.07;;;;;;;18.82;79.65;101303.19;4237445;28;20793;-71
2023/09/26 09:36:46;;;;;;;23.77;14.00;;;;;;;18.80;78.83;101301.66;4271981;28;20944;-70
2023/09/26 09:39:13;;;;;;;26.93;14.57;;;;;;;18.54;80.36;101302.84;4194798;28;20245;-71
2023/09/26 09:41:40;;;;;;;26.63;14.67;;;;;;;18.53;80.98;101312.09;4196789;28;20345;-71
2023/09/26 09:44:06;;;;;;;27.37;14.63;;;;;;;18.58;80.21;101303.34;4206206;28;20279;-72
2023/09/26 09:46:35;;;;;;;29.63;14.33;;;;;;;18.62;80.46;101308.25;4205858;28;23234;-71
2023/09/26 09:49:03;;;;;;;25.73;14.90;;;;;;;18.66;79.87;101301.41;4202697;28;20240;-71
2023/09/26 09:51:31;;;;;;;24.53;14.10;;;;;;;19.00;78.18;101300.19;4193769;28;22279;-71
2023/09/26 09:54:00;;;;;;;24.50;14.10;;;;;;;19.04;77.63;101303.41;4179843;28;20247;-71
2023/09/26 09:56:34;;;;;;;24.40;13.33;;;;;;;19.18;76.43;101293.53;4203833;28;20231;-71
2023/09/26 09:59:06;;;;;;;29.17;15.27;;;;;;;19.24;76.83;101297.44;4222480;28;20243;-71
2023/09/26 10:01:35;;;;;;;30.33;14.93;;;;;;;19.42;76.21;101299.88;4200444;28;20230;-71
2023/09/26 10:04:02;;;;;;;31.57;15.30;;;;;;;19.38;76.11;101302.13;4207006;28;20252;-73
2023/09/26 10:06:30;;;;;;;28.83;15.13;;;;;;;19.47;76.24;101308.41;4205453;28;20245;-70
2023/09/26 10:08:57;;;;;;;26.97;14.27;;;;;;;19.54;75.34;101303.88;4203703;28;20828;-73
2023/09/26 10:11:25;;;;;;;26.07;14.27;;;;;;;19.48;75.98;101297.25;4201565;28;20651;-71
2023/09/26 10:13:52;;;;;;;29.03;14.13;;;;;;;19.52;75.11;101285.88;4208773;28;20308;-73
2023/09/26 10:16:19;;;;;;;29.87;14.93;;;;;;;19.71;75.17;101293.59;4208165;28;20284;-74
2023/09/26 10:18:47;;;;;;;29.23;15.40;;;;;;;19.49;75.57;101289.84;4202503;28;21786;-72
2023/09/26 10:21:31;;;;;;;26.57;15.33;;;;;;;19.46;76.20;101293.84;4210608;28;20427;-73
2023/09/26 10:24:12;;;;;;;34.60;16.53;;;;;;;19.27;77.01;101289.69;4204018;28;22112;-74
2023/09/26 10:26:45;;;;;;;25.70;15.47;;;;;;;19.49;76.14;101289.84;4211439;28;20302;-72
2023/09/26 10:29:21;;;;;;;27.93;15.57;;;;;;;19.11;77.17;101290.66;4207358;28;20236;-74
2023/09/26 10:31:58;;;;;;;26.37;15.27;;;;;;;19.44;76.04;101290.41;4197053;28;21295;-72
2023/09/26 10:34:34;;;;;;;26.13;13.93;;;;;;;19.66;75.10;101287.81;4216608;28;20289;-70
2023/09/26 10:37:20;;;;;;;28.67;14.77;;;;;;;19.58;76.05;101282.38;4222347;28;21191;-72
2023/09/26 10:39:48;;;;;;;35.27;14.80;;;;;;;19.90;75.15;101278.47;4206289;28;20232;-71
2023/09/26 10:42:20;;;;;;;29.83;14.90;;;;;;;20.00;73.77;101286.47;4213145;28;20244;-70
2023/09/26 10:44:50;;;;;;;28.87;13.73;;;;;;;20.48;71.75;101290.66;4207796;28;23610;-71
2023/09/26 10:47:23;;;;;;;27.17;14.73;;;;;;;20.52;71.32;101270.84;4206520;28;20319;-71
2023/09/26 10:49:50;;;;;;;24.90;14.83;;;;;;;20.28;72.32;101277.53;4259999;28;20773;-69
2023/09/26 10:52:23;;;;;;;24.17;13.17;;;;;;;20.87;70.13;101268.31;4223631;28;20228;-71
2023/09/26 10:54:51;;;;;;;28.80;14.30;;;;;;;20.94;69.37;101267.53;4216051;28;20322;-69
2023/09/26 10:57:18;;;;;;;27.17;14.47;;;;;;;20.87;69.10;101262.81;4237410;28;20242;-74
2023/09/26 10:59:45;;;;;;;25.77;14.30;;;;;;;20.97;69.04;101268.00;4228750;28;20237;-69
2023/09/26 11:02:11;;;;;;;24.93;14.57;;;;;;;20.81;70.21;101263.56;4215566;28;20322;-71
2023/09/26 11:04:39;;;;;;;27.03;14.83;;;;;;;20.77;70.68;101258.69;4232015;28;20238;-73
2023/09/26 11:07:07;;;;;;;33.93;16.20;;;;;;;20.43;71.89;101261.88;4234587;28;20624;-69
2023/09/26 11:09:40;;;;;;;27.30;16.03;;;;;;;20.46;72.38;101257.03;4236465;28;22709;-69
2023/09/26 11:12:08;;;;;;;30.30;15.10;;;;;;;20.46;72.01;101260.63;4256279;28;20668;-69
2023/09/26 11:14:34;;;;;;;28.20;15.40;;;;;;;20.65;70.80;101259.16;4207092;28;20237;-70
2023/09/26 11:17:04;;;;;;;30.90;16.13;;;;;;;20.77;70.90;101258.69;4224232;28;20274;-69
2023/09/26 11:19:31;;;;;;;35.60;15.37;;;;;;;21.04;69.33;101265.28;4285502;28;20241;-71
2023/09/26 11:21:58;;;;;;;32.40;14.57;;;;;;;21.01;69.42;101260.19;4251168;28;20612;-46